Accueil
METAR-TAF:

METAR-TAF

Aéroports :

Florennes, Belgique

Base aérienne de Florennes

latitude: 50-14N, longitude: 004-39E, altitude: 279 m

Observation

Le bulletin a été fait il y a 31 minutes, à 09:55 UTC
Vent 12 kt de est/nord-est
Température -1°C
Humidité 40%
Pression 1018 hPa
Visibilité 10 km ou plus

METAR: EBFS 240955Z AUTO 07012KT 9999 NCD M01/M13 Q1018 BLU

Heure: 11:26 (10:26 UTC)

Prévision

Le bulletin a été fait il y a 18 heures et 45 minutes, à 15:41 UTC
Prévision valable du 23 à 19 UTC au 24 à 07 UTC
Vent 5 kt de nord-est avec des rafales jusqu'à 15 kt
Visibilité 10 km ou plus
Nuages épars à une hauteur de 28000 ft

TAF: EBFS 231541Z 2319/2407 05005G15KT 9999 SCT280

Observations et prévisions météorologiques de plus de 4000 aéroports (messages METAR et TAF).

Les stations disponibles sont représentées par des disques jaunes et rouges sur la carte.

Passer la souris dessus pour voir le nom de la station.

Cliquer dessus pour voir les observations et prévisions météorologiques.

Pour changer de carte: cliquez sur les boutons verts avec une croix noire pour zoomer, sur le bouton vert avec un tiret pour effectuer un zoom arrière, ou sur les flèches vertes pour les cartes adjacentes.


METAR-TAF: